Time;durP1;ratioP1;P1;durP2;ratioP2;P2;SDS_P1;SDS_P2;PMS_P1;PMS_P2;Temp;Humidity;BMP_temperature;BMP_pressure;BME280_temperature;BME280_humidity;BME280_pressure;Samples;Min_cycle;Max_cycle;Signal;HPM_P1;HPM_P2
2021/06/09 00:01:33;;;;;;;3.30;3.00;;;22.70;44.20;;;;;;8397900;28;20501;-47
2021/06/09 00:05:33;;;;;;;3.72;2.90;;;22.70;44.20;;;;;;8391927;28;20459;-47
2021/06/09 00:09:34;;;;;;;2.87;2.53;;;22.70;44.20;;;;;;8378603;28;20033;-48
2021/06/09 00:13:35;;;;;;;3.30;2.57;;;22.70;44.20;;;;;;8360273;28;20405;-48
2021/06/09 00:17:36;;;;;;;4.15;2.92;;;22.70;44.20;;;;;;8389709;28;20060;-47
2021/06/09 00:21:37;;;;;;;3.15;2.72;;;22.70;44.20;;;;;;8397280;28;20489;-48
2021/06/09 00:25:38;;;;;;;4.22;3.17;;;22.70;44.20;;;;;;8369067;28;20044;-49
2021/06/09 00:29:40;;;;;;;2.50;2.30;;;22.70;44.20;;;;;;8358228;28;20375;-48
2021/06/09 00:33:40;;;;;;;3.10;2.53;;;22.70;44.20;;;;;;8359503;28;20592;-47
2021/06/09 00:37:41;;;;;;;3.28;2.78;;;22.60;44.20;;;;;;8387699;28;20032;-47
2021/06/09 00:41:43;;;;;;;3.40;2.67;;;22.60;44.20;;;;;;8358451;28;20067;-48
2021/06/09 00:45:54;;;;;;;4.00;3.05;;;22.60;44.20;;;;;;8375195;28;20056;-48
2021/06/09 00:49:54;;;;;;;3.10;2.80;;;22.60;44.20;;;;;;8390556;28;20054;-48
2021/06/09 00:54:01;;;;;;;3.10;2.63;;;22.60;44.20;;;;;;8392357;28;20034;-49
2021/06/09 00:58:02;;;;;;;3.60;2.88;;;22.60;44.20;;;;;;8394627;28;20029;-47
2021/06/09 01:02:04;;;;;;;3.07;2.50;;;22.60;44.30;;;;;;8390090;28;20223;-48
2021/06/09 01:06:06;;;;;;;3.30;2.70;;;22.60;44.20;;;;;;8380765;28;20291;-48
2021/06/09 01:10:07;;;;;;;5.30;2.60;;;22.60;44.30;;;;;;8377525;28;20097;-48
2021/06/09 01:14:07;;;;;;;3.15;2.30;;;22.60;44.30;;;;;;8369057;28;20127;-47
2021/06/09 01:18:09;;;;;;;2.93;2.50;;;22.60;44.30;;;;;;8391358;28;20045;-48
2021/06/09 01:22:10;;;;;;;5.57;2.95;;;22.60;44.30;;;;;;8371615;28;20501;-47
2021/06/09 01:26:10;;;;;;;3.35;2.75;;;22.60;44.30;;;;;;8359264;28;20097;-48
2021/06/09 01:30:12;;;;;;;5.53;2.93;;;22.60;44.30;;;;;;8391243;28;20039;-48
2021/06/09 01:34:12;;;;;;;;;;;22.60;44.30;;;;;;8376070;28;20263;-47
2021/06/09 01:38:13;;;;;;;3.63;2.80;;;22.60;44.30;;;;;;8359928;28;19961;-47
2021/06/09 01:42:13;;;;;;;5.23;2.60;;;22.50;44.30;;;;;;8390961;28;20075;-47
2021/06/09 01:46:16;;;;;;;4.00;3.20;;;22.60;44.30;;;;;;8391046;28;20077;-49
2021/06/09 01:50:18;;;;;;;5.18;2.80;;;22.50;44.30;;;;;;8393686;28;20788;-47
2021/06/09 01:54:18;;;;;;;3.03;2.70;;;22.50;44.30;;;;;;8390853;28;20040;-47
2021/06/09 01:58:19;;;;;;;3.40;2.83;;;22.50;44.30;;;;;;8390769;28;20036;-47
2021/06/09 02:02:20;;;;;;;4.07;2.83;;;22.50;44.30;;;;;;8389180;28;20098;-47
2021/06/09 02:06:20;;;;;;;4.32;3.10;;;22.50;44.30;;;;;;8395264;28;20110;-49
2021/06/09 02:10:21;;;;;;;3.40;2.63;;;22.50;44.40;;;;;;8391099;28;20043;-47
2021/06/09 02:14:22;;;;;;;;;;;22.50;44.40;;;;;;8389435;28;20385;-48
2021/06/09 02:18:27;;;;;;;3.87;2.70;;;22.50;44.30;;;;;;8390520;28;19913;-48
2021/06/09 02:22:29;;;;;;;3.20;2.90;;;22.50;44.30;;;;;;8390166;28;20120;-48
2021/06/09 02:26:29;;;;;;;3.22;2.72;;;22.50;44.40;;;;;;8398751;28;20489;-47
2021/06/09 02:30:31;;;;;;;3.53;3.00;;;22.50;44.40;;;;;;8396363;28;20098;-47
2021/06/09 02:34:37;;;;;;;2.92;2.63;;;22.50;44.40;;;;;;8396329;28;20086;-48
2021/06/09 02:38:38;;;;;;;3.17;2.40;;;22.40;44.30;;;;;;8387614;28;20032;-49
2021/06/09 02:42:38;;;;;;;;;;;22.40;44.30;;;;;;8368095;28;20049;-48
2021/06/09 02:46:54;;;;;;;3.40;2.80;;;22.50;44.40;;;;;;8362516;28;19963;-47
2021/06/09 02:50:54;;;;;;;3.42;2.55;;;22.40;44.40;;;;;;8361849;28;20037;-47
2021/06/09 02:55:23;;;;;;;2.97;2.67;;;22.40;44.30;;;;;;8380019;28;20486;-47
2021/06/09 02:59:43;;;;;;;4.53;2.83;;;22.40;44.40;;;;;;8374692;28;20434;-50
2021/06/09 03:04:12;;;;;;;3.30;2.60;;;22.40;44.40;;;;;;8396428;28;20040;-51
2021/06/09 03:08:21;;;;;;;4.28;3.00;;;22.40;44.40;;;;;;8356919;28;20048;-50
2021/06/09 03:12:34;;;;;;;3.13;2.80;;;22.40;44.40;;;;;;8391123;28;20043;-48
2021/06/09 03:16:50;;;;;;;3.20;2.78;;;22.40;44.40;;;;;;8395154;28;20036;-51
2021/06/09 03:21:01;;;;;;;3.50;2.97;;;22.40;44.40;;;;;;8393555;28;20078;-51
2021/06/09 03:25:03;;;;;;;2.85;2.60;;;22.40;44.40;;;;;;8376187;28;20472;-48
2021/06/09 03:29:33;;;;;;;4.53;3.03;;;22.40;44.40;;;;;;8366769;28;20159;-48
2021/06/09 03:33:38;;;;;;;3.22;2.88;;;22.40;44.40;;;;;;8394790;28;20044;-47
2021/06/09 03:37:44;;;;;;;3.60;2.67;;;22.40;44.40;;;;;;8394644;28;20033;-47
2021/06/09 03:41:51;;;;;;;3.08;2.75;;;22.40;44.40;;;;;;8360237;28;20048;-48
2021/06/09 03:45:53;;;;;;;3.58;2.55;;;22.40;44.50;;;;;;8361140;28;20053;-48
2021/06/09 03:49:56;;;;;;;3.00;2.70;;;22.30;44.40;;;;;;8364579;28;20056;-46
2021/06/09 03:53:59;;;;;;;2.90;2.60;;;22.30;44.40;;;;;;8394379;28;20166;-48
2021/06/09 03:58:01;;;;;;;3.47;3.17;;;22.30;44.40;;;;;;8393732;28;20068;-47
2021/06/09 04:02:05;;;;;;;;;;;22.30;44.40;;;;;;8392426;28;20048;-47
2021/06/09 04:06:10;;;;;;;3.22;2.80;;;22.30;44.40;;;;;;8384734;28;19994;-48
2021/06/09 04:10:12;;;;;;;3.22;2.67;;;22.30;44.40;;;;;;8351434;28;20040;-47
2021/06/09 04:14:18;;;;;;;3.90;2.67;;;22.30;44.40;;;;;;8355352;28;20041;-47
2021/06/09 04:18:20;;;;;;;3.05;2.60;;;22.30;44.40;;;;;;8372925;28;20138;-47
2021/06/09 04:22:24;;;;;;;4.18;2.90;;;22.30;44.40;;;;;;8392766;28;20068;-49
2021/06/09 04:26:25;;;;;;;3.63;3.00;;;22.30;44.50;;;;;;8395538;28;20040;-47
2021/06/09 04:30:26;;;;;;;3.13;2.78;;;22.30;44.40;;;;;;8392565;28;20044;-48
2021/06/09 04:34:45;;;;;;;5.10;3.15;;;22.30;44.40;;;;;;8392597;28;20413;-47
2021/06/09 04:38:45;;;;;;;3.05;2.70;;;22.30;44.40;;;;;;8390841;28;20397;-49
2021/06/09 04:42:48;;;;;;;2.93;2.40;;;22.30;44.40;;;;;;8392298;28;20047;-48
2021/06/09 04:46:52;;;;;;;2.92;2.60;;;22.30;44.40;;;;;;8393909;28;20131;-49
2021/06/09 04:50:52;;;;;;;3.42;2.80;;;22.30;44.40;;;;;;8392024;28;20106;-48
2021/06/09 04:54:53;;;;;;;2.57;2.33;;;22.30;44.40;;;;;;8392826;28;20040;-48
2021/06/09 04:58:55;;;;;;;3.30;2.90;;;22.30;44.40;;;;;;8390181;28;20262;-49
2021/06/09 05:02:56;;;;;;;5.20;3.20;;;22.30;44.50;;;;;;8386779;28;20588;-47
2021/06/09 05:06:56;;;;;;;4.23;3.37;;;22.30;44.50;;;;;;8358309;28;20060;-54
2021/06/09 05:11:01;;;;;;;4.13;3.15;;;22.30;44.40;;;;;;8356855;28;20133;-48
2021/06/09 05:15:08;;;;;;;3.92;3.13;;;22.30;44.50;;;;;;8368401;28;20520;-48
2021/06/09 05:19:09;;;;;;;5.35;3.65;;;22.30;44.50;;;;;;8391429;28;20051;-47
2021/06/09 05:23:15;;;;;;;4.78;3.17;;;22.30;44.50;;;;;;8369244;28;20032;-46
2021/06/09 05:27:20;;;;;;;5.68;4.05;;;22.30;44.50;;;;;;8378934;28;20520;-49
2021/06/09 05:31:23;;;;;;;5.03;4.03;;;22.30;44.50;;;;;;8379021;28;20045;-48
2021/06/09 05:35:25;;;;;;;4.43;3.30;;;22.30;44.50;;;;;;8384622;28;20087;-48
2021/06/09 05:39:26;;;;;;;5.50;3.63;;;22.30;44.50;;;;;;8375874;28;20489;-47
2021/06/09 05:43:28;;;;;;;5.43;3.58;;;22.30;44.50;;;;;;8368924;28;20041;-48
2021/06/09 05:47:28;;;;;;;3.47;2.90;;;22.30;44.40;;;;;;8386274;28;20048;-47
2021/06/09 05:51:29;;;;;;;4.73;3.33;;;22.30;44.50;;;;;;8390809;28;20044;-49
2021/06/09 05:55:31;;;;;;;5.20;4.00;;;22.30;44.40;;;;;;8390230;28;20115;-49
2021/06/09 05:59:33;;;;;;;4.20;3.22;;;22.30;44.40;;;;;;8398296;28;20484;-47
2021/06/09 06:03:36;;;;;;;5.82;3.65;;;22.30;44.40;;;;;;8397319;28;20465;-47
2021/06/09 06:07:37;;;;;;;4.72;3.50;;;22.30;44.40;;;;;;8396688;28;20048;-47
2021/06/09 06:11:38;;;;;;;4.28;3.10;;;22.30;44.40;;;;;;8363451;28;20155;-48
2021/06/09 06:15:39;;;;;;;4.15;3.40;;;22.30;44.40;;;;;;8383798;28;20445;-48
2021/06/09 06:19:40;;;;;;;5.35;4.05;;;22.30;44.40;;;;;;8396668;28;20032;-47
2021/06/09 06:23:42;;;;;;;4.18;3.75;;;22.30;44.40;;;;;;8387342;28;20029;-47
2021/06/09 06:27:45;;;;;;;6.95;3.70;;;22.30;44.50;;;;;;8379305;28;20165;-47
2021/06/09 06:31:46;;;;;;;5.18;3.90;;;22.30;44.50;;;;;;8397330;28;20040;-49
2021/06/09 06:35:47;;;;;;;5.78;3.90;;;22.30;44.50;;;;;;8397651;28;20078;-49
2021/06/09 06:39:48;;;;;;;5.55;4.20;;;22.30;44.50;;;;;;8395957;28;20075;-51
2021/06/09 06:43:50;;;;;;;5.00;3.90;;;22.30;44.50;;;;;;8394592;28;20119;-48
2021/06/09 06:47:52;;;;;;;5.85;4.32;;;22.30;44.50;;;;;;8396043;28;20036;-47
2021/06/09 06:51:53;;;;;;;4.85;4.32;;;22.30;44.70;;;;;;8400225;28;20040;-47
2021/06/09 06:56:00;;;;;;;5.55;4.25;;;22.30;44.50;;;;;;8368526;28;20049;-47
2021/06/09 07:00:05;;;;;;;5.85;4.35;;;22.40;44.50;;;;;;8372911;28;20040;-49
2021/06/09 07:04:06;;;;;;;5.88;4.30;;;22.40;44.40;;;;;;8395490;28;20055;-49
2021/06/09 07:08:07;;;;;;;6.55;4.68;;;22.40;44.40;;;;;;8395730;28;20051;-50
2021/06/09 07:12:08;;;;;;;6.50;5.20;;;22.40;44.40;;;;;;8396775;28;20040;-45
2021/06/09 07:16:10;;;;;;;5.53;4.40;;;22.40;44.50;;;;;;8395144;28;20040;-46
2021/06/09 07:20:13;;;;;;;7.30;4.65;;;22.40;44.50;;;;;;8368377;28;20082;-46
2021/06/09 07:24:15;;;;;;;5.78;4.22;;;22.40;44.50;;;;;;8394822;28;20056;-46
2021/06/09 07:28:20;;;;;;;5.55;3.90;;;22.40;44.50;;;;;;8399080;28;20045;-46
2021/06/09 07:32:21;;;;;;;6.90;4.68;;;22.40;44.40;;;;;;8392635;28;20485;-46
2021/06/09 07:36:44;;;;;;;6.88;5.10;;;22.40;44.50;;;;;;8381799;28;20040;-46
2021/06/09 07:40:49;;;;;;;6.93;4.90;;;22.40;44.50;;;;;;8361909;28;20033;-46
2021/06/09 07:45:08;;;;;;;5.25;4.07;;;22.40;44.40;;;;;;8392767;28;20037;-47
2021/06/09 07:49:11;;;;;;;5.20;4.40;;;22.40;44.40;;;;;;8398575;28;20025;-46
2021/06/09 07:53:13;;;;;;;6.70;5.15;;;22.40;44.40;;;;;;8388811;28;20034;-46
2021/06/09 07:57:15;;;;;;;6.00;4.85;;;22.40;44.50;;;;;;8372321;28;20044;-46
2021/06/09 08:01:16;;;;;;;6.63;4.97;;;22.50;44.50;;;;;;8393607;28;20081;-45
2021/06/09 08:05:17;;;;;;;5.65;4.50;;;22.50;44.50;;;;;;8396441;28;20037;-46
2021/06/09 08:09:18;;;;;;;6.10;4.63;;;22.50;44.50;;;;;;8393686;28;20035;-45
2021/06/09 08:13:19;;;;;;;6.35;4.88;;;22.50;44.40;;;;;;8392900;28;20046;-46
2021/06/09 08:17:22;;;;;;;5.43;4.78;;;22.50;44.40;;;;;;8391214;28;20029;-46
2021/06/09 08:21:25;;;;;;;6.22;4.80;;;22.50;44.60;;;;;;8380105;28;20082;-46
2021/06/09 08:25:26;;;;;;;5.60;4.70;;;22.50;44.40;;;;;;8364034;28;20049;-46
2021/06/09 08:29:27;;;;;;;5.90;4.72;;;22.60;44.50;;;;;;8363237;28;20036;-45
2021/06/09 08:33:27;;;;;;;6.73;4.77;;;22.60;44.50;;;;;;8379073;28;20037;-46
2021/06/09 08:37:28;;;;;;;6.35;4.72;;;22.60;44.40;;;;;;8359394;28;20320;-46
2021/06/09 08:41:34;;;;;;;6.47;5.13;;;22.60;44.50;;;;;;8362064;28;20044;-47
2021/06/09 08:45:36;;;;;;;5.97;4.22;;;22.60;44.50;;;;;;8358978;28;20045;-45
2021/06/09 08:49:37;;;;;;;5.75;4.60;;;22.60;44.50;;;;;;8358915;28;20049;-46
2021/06/09 08:53:49;;;;;;;5.82;4.65;;;22.60;44.40;;;;;;8357293;28;20455;-46
2021/06/09 08:57:50;;;;;;;5.90;4.60;;;22.70;44.40;;;;;;8358752;28;20029;-46
2021/06/09 09:01:51;;;;;;;5.82;4.78;;;22.70;44.50;;;;;;8361551;28;20494;-45
2021/06/09 09:05:51;;;;;;;7.78;4.85;;;22.70;44.40;;;;;;8367786;28;20079;-46
2021/06/09 09:09:54;;;;;;;5.60;4.80;;;22.70;44.40;;;;;;8391498;28;20032;-45
2021/06/09 09:13:55;;;;;;;5.20;4.45;;;22.70;44.40;;;;;;8390002;28;20396;-45
2021/06/09 09:17:58;;;;;;;6.60;5.00;;;22.70;44.40;;;;;;8395274;28;20135;-45
2021/06/09 09:21:58;;;;;;;6.03;4.60;;;22.70;44.40;;;;;;8391172;28;20109;-48
2021/06/09 09:26:19;;;;;;;8.27;5.17;;;22.80;44.40;;;;;;8389797;28;20056;-46
2021/06/09 09:30:22;;;;;;;5.57;4.60;;;22.80;44.40;;;;;;8378500;28;20333;-46
2021/06/09 09:34:31;;;;;;;6.07;4.88;;;22.80;44.30;;;;;;8357808;28;20123;-46
2021/06/09 09:38:33;;;;;;;6.10;4.78;;;22.80;44.30;;;;;;8366710;28;20020;-46
2021/06/09 09:42:34;;;;;;;8.38;4.55;;;22.90;44.30;;;;;;8376609;28;20075;-46
2021/06/09 09:46:44;;;;;;;5.32;4.32;;;22.90;44.40;;;;;;8358039;28;20055;-46
2021/06/09 09:50:49;;;;;;;5.75;4.45;;;22.90;44.30;;;;;;8363695;28;20036;-46
2021/06/09 09:54:58;;;;;;;6.53;4.90;;;22.90;44.30;;;;;;8390593;28;20044;-46
2021/06/09 09:59:10;;;;;;;5.85;4.72;;;22.90;44.30;;;;;;8393524;28;20036;-46
2021/06/09 10:03:17;;;;;;;5.32;4.63;;;22.90;44.30;;;;;;8379724;28;20493;-46
2021/06/09 10:07:18;;;;;;;6.40;4.82;;;22.90;44.20;;;;;;8378052;28;20056;-46
2021/06/09 10:11:20;;;;;;;5.47;4.20;;;23.00;44.20;;;;;;8388929;28;20386;-47
2021/06/09 10:15:34;;;;;;;6.15;4.47;;;23.00;44.10;;;;;;8393758;28;20094;-47
2021/06/09 10:19:38;;;;;;;6.25;4.70;;;23.10;44.10;;;;;;8361665;28;20353;-46
2021/06/09 10:23:39;;;;;;;5.35;4.30;;;23.10;44.10;;;;;;8349410;28;20447;-46
2021/06/09 10:27:49;;;;;;;5.45;4.13;;;23.10;44.10;;;;;;8357153;28;20049;-46
2021/06/09 10:31:59;;;;;;;6.00;4.47;;;23.10;44.10;;;;;;8380499;28;20024;-46
2021/06/09 10:35:59;;;;;;;7.07;5.10;;;23.20;44.00;;;;;;8371720;28;20036;-48
2021/06/09 10:40:01;;;;;;;6.13;4.90;;;23.20;44.10;;;;;;8390375;28;20043;-48
2021/06/09 10:44:03;;;;;;;5.50;4.68;;;23.20;43.90;;;;;;8362356;28;20134;-48
2021/06/09 10:48:05;;;;;;;5.97;4.50;;;23.20;43.90;;;;;;8362766;28;20049;-47
2021/06/09 10:52:06;;;;;;;5.78;5.03;;;23.20;44.00;;;;;;8362785;28;20121;-49
2021/06/09 10:56:07;;;;;;;6.15;5.00;;;23.20;44.00;;;;;;8365279;28;20508;-49
2021/06/09 11:00:11;;;;;;;8.57;4.90;;;23.20;44.00;;;;;;8373472;28;20500;-46
2021/06/09 11:04:12;;;;;;;6.38;4.93;;;23.30;44.10;;;;;;8395708;28;20067;-45
2021/06/09 11:08:16;;;;;;;6.85;5.53;;;23.30;44.00;;;;;;8365418;28;20041;-47
2021/06/09 11:12:22;;;;;;;6.25;5.13;;;23.30;43.90;;;;;;8366627;28;20481;-46
2021/06/09 11:16:22;;;;;;;8.80;5.43;;;23.30;43.80;;;;;;8383499;28;20044;-46
2021/06/09 11:20:33;;;;;;;6.57;5.20;;;23.30;43.80;;;;;;8368600;28;20032;-48
2021/06/09 11:24:34;;;;;;;6.73;5.23;;;23.40;43.70;;;;;;8394836;28;20787;-47
2021/06/09 11:28:37;;;;;;;6.97;5.15;;;23.40;43.70;;;;;;8394600;28;20063;-47
2021/06/09 11:32:43;;;;;;;6.80;5.20;;;23.50;43.70;;;;;;8397343;28;20036;-45
2021/06/09 11:36:44;;;;;;;6.55;5.20;;;23.50;43.60;;;;;;8394505;28;20052;-46
2021/06/09 11:41:02;;;;;;;7.55;5.43;;;23.50;43.60;;;;;;8394483;28;20037;-46
2021/06/09 11:45:25;;;;;;;6.88;5.40;;;23.60;43.60;;;;;;8392747;28;20090;-47
2021/06/09 11:49:26;;;;;;;7.80;5.40;;;23.60;43.60;;;;;;8372453;28;20048;-46
2021/06/09 11:53:42;;;;;;;6.97;5.23;;;23.60;43.60;;;;;;8368912;28;20388;-46
2021/06/09 11:57:42;;;;;;;7.88;5.88;;;23.60;43.60;;;;;;8377602;28;20363;-46
2021/06/09 12:01:46;;;;;;;7.63;5.70;;;23.60;43.80;;;;;;8360801;28;20033;-46
2021/06/09 12:05:47;;;;;;;7.20;5.72;;;23.50;43.70;;;;;;8358778;28;20099;-46
2021/06/09 12:09:48;;;;;;;;;;;23.50;44.00;;;;;;8379490;28;20032;-48
2021/06/09 12:13:49;;;;;;;8.32;5.97;;;23.50;44.50;;;;;;8370368;28;19936;-47
2021/06/09 12:17:49;;;;;;;9.65;6.85;;;23.50;44.20;;;;;;8368440;28;20036;-47
2021/06/09 12:21:54;;;;;;;9.00;6.77;;;23.50;44.80;;;;;;8392738;28;20144;-46
2021/06/09 12:25:55;;;;;;;9.25;6.65;;;23.50;44.20;;;;;;8365595;28;20345;-47
2021/06/09 12:29:55;;;;;;;10.37;6.73;;;23.50;44.60;;;;;;8364405;28;20029;-47
2021/06/09 12:33:58;;;;;;;10.27;7.07;;;23.40;44.10;;;;;;8359915;28;20067;-45
2021/06/09 12:38:04;;;;;;;11.25;7.43;;;23.40;44.10;;;;;;8359159;28;20043;-47
2021/06/09 12:42:13;;;;;;;10.70;6.85;;;23.50;44.80;;;;;;8381836;28;20043;-47
2021/06/09 12:46:13;;;;;;;10.50;7.18;;;23.40;44.40;;;;;;8360449;28;20044;-47
2021/06/09 12:50:24;;;;;;;10.27;7.17;;;23.50;44.40;;;;;;8361009;28;20035;-46
2021/06/09 12:54:24;;;;;;;10.37;7.17;;;23.50;44.50;;;;;;8359331;28;20033;-47
2021/06/09 12:58:28;;;;;;;11.63;7.00;;;23.40;43.90;;;;;;8359030;28;20326;-47
2021/06/09 13:02:29;;;;;;;10.32;6.93;;;23.40;43.80;;;;;;8387167;28;20405;-47
2021/06/09 13:06:30;;;;;;;12.20;8.13;;;23.40;43.80;;;;;;8395740;28;20133;-49
2021/06/09 13:10:31;;;;;;;9.65;6.53;;;23.40;43.80;;;;;;8368930;28;20033;-48
2021/06/09 13:14:39;;;;;;;10.13;6.97;;;23.40;43.80;;;;;;8363368;28;20035;-48
2021/06/09 13:18:47;;;;;;;10.98;6.82;;;23.40;43.80;;;;;;8391499;28;20763;-46
2021/06/09 13:22:49;;;;;;;11.43;7.18;;;23.40;43.90;;;;;;8366345;28;20402;-47
2021/06/09 13:27:09;;;;;;;11.13;7.63;;;23.30;44.00;;;;;;8361310;28;20037;-49
2021/06/09 13:31:10;;;;;;;10.52;7.22;;;23.30;43.90;;;;;;8357647;28;20045;-48
2021/06/09 13:35:22;;;;;;;11.48;7.10;;;23.30;44.00;;;;;;8381174;28;20059;-47
2021/06/09 13:39:23;;;;;;;10.82;7.20;;;23.30;44.00;;;;;;8371389;28;20485;-46
2021/06/09 13:43:25;;;;;;;10.77;7.10;;;23.30;44.10;;;;;;8392870;28;20039;-49
2021/06/09 13:47:27;;;;;;;11.57;7.55;;;23.30;44.20;;;;;;8364812;28;20101;-49
2021/06/09 13:51:36;;;;;;;10.82;7.03;;;23.30;44.20;;;;;;8390713;28;20098;-47
2021/06/09 13:55:42;;;;;;;9.38;6.97;;;23.30;44.20;;;;;;8368270;28;20043;-47
2021/06/09 14:00:05;;;;;;;9.68;6.63;;;23.20;44.20;;;;;;8356458;28;20091;-46
2021/06/09 14:04:06;;;;;;;10.02;7.00;;;23.20;44.10;;;;;;8362007;28;20033;-48
2021/06/09 14:08:07;;;;;;;10.68;7.35;;;23.30;44.20;;;;;;8355642;28;20378;-47
2021/06/09 14:12:10;;;;;;;9.95;7.07;;;23.20;44.20;;;;;;8357790;28;20037;-49
2021/06/09 14:16:11;;;;;;;10.52;7.20;;;23.20;44.20;;;;;;8377182;28;20056;-49
2021/06/09 14:20:33;;;;;;;8.65;6.40;;;23.20;44.30;;;;;;8364729;28;20033;-46
2021/06/09 14:24:37;;;;;;;11.18;6.93;;;23.20;44.10;;;;;;8367516;28;20037;-47
2021/06/09 14:28:40;;;;;;;12.02;7.35;;;23.20;44.20;;;;;;8363567;28;20139;-47
2021/06/09 14:37:39;;;;;;;10.60;6.57;;;23.20;44.30;;;;;;8374122;28;20511;-49
2021/06/09 14:41:50;;;;;;;10.63;6.88;;;23.20;44.30;;;;;;8386201;28;20058;-47
2021/06/09 14:45:56;;;;;;;9.38;6.28;;;23.20;44.30;;;;;;8363726;28;20044;-47
2021/06/09 14:50:00;;;;;;;10.57;6.60;;;23.20;44.30;;;;;;8356856;28;20029;-46
2021/06/09 14:54:01;;;;;;;9.75;6.85;;;23.20;44.20;;;;;;8365096;28;20177;-47
2021/06/09 14:58:02;;;;;;;10.17;7.17;;;23.20;44.30;;;;;;8395508;28;20037;-46
2021/06/09 15:02:02;;;;;;;10.50;6.88;;;23.20;44.30;;;;;;8393372;28;20089;-48
2021/06/09 15:06:08;;;;;;;9.85;6.50;;;23.20;44.30;;;;;;8399616;28;20048;-46
2021/06/09 15:10:09;;;;;;;9.82;6.40;;;23.20;44.20;;;;;;8395507;28;20045;-47
2021/06/09 15:14:09;;;;;;;;;;;23.20;44.30;;;;;;8393782;28;20029;-47
2021/06/09 15:18:10;;;;;;;10.30;6.60;;;23.20;44.30;;;;;;8395468;28;19909;-48
2021/06/09 15:22:11;;;;;;;9.13;6.30;;;23.20;44.40;;;;;;8399354;28;20037;-46
2021/06/09 15:26:11;;;;;;;11.07;6.30;;;23.20;44.30;;;;;;8393817;28;20289;-47
2021/06/09 15:30:12;;;;;;;9.43;6.43;;;23.20;44.30;;;;;;8394428;28;20075;-48
2021/06/09 15:34:13;;;;;;;9.80;6.45;;;23.20;44.30;;;;;;8394333;28;20039;-47
2021/06/09 15:38:14;;;;;;;8.57;6.32;;;23.20;44.90;;;;;;8392840;28;20040;-46
2021/06/09 15:42:15;;;;;;;9.80;6.93;;;23.20;44.30;;;;;;8399068;28;20040;-48
2021/06/09 15:46:15;;;;;;;7.72;5.90;;;23.20;44.30;;;;;;8393943;28;20052;-46
2021/06/09 15:50:16;;;;;;;8.53;6.10;;;23.20;44.30;;;;;;8391898;28;20071;-48
2021/06/09 15:54:17;;;;;;;8.82;5.93;;;23.20;44.30;;;;;;8394042;28;20028;-45
2021/06/09 15:58:18;;;;;;;;;;;23.20;44.30;;;;;;8399096;28;20038;-46
2021/06/09 16:02:20;;;;;;;8.70;5.83;;;23.20;44.30;;;;;;8392454;28;19913;-47
2021/06/09 16:06:20;;;;;;;9.20;5.85;;;23.20;44.30;;;;;;8394036;28;20098;-46
2021/06/09 16:10:21;;;;;;;8.73;6.15;;;23.20;44.30;;;;;;8393663;28;20037;-47
2021/06/09 16:14:21;;;;;;;7.33;5.30;;;23.20;44.30;;;;;;8391464;28;20512;-46
2021/06/09 16:18:22;;;;;;;8.77;6.10;;;23.20;44.30;;;;;;8397739;28;20090;-46
2021/06/09 16:22:23;;;;;;;7.97;5.55;;;23.20;44.30;;;;;;8392973;28;20362;-47
2021/06/09 16:26:24;;;;;;;9.17;5.73;;;23.20;44.30;;;;;;8386315;28;20044;-46
2021/06/09 16:30:24;;;;;;;7.78;5.50;;;23.20;44.30;;;;;;8356071;28;20037;-47
2021/06/09 16:34:25;;;;;;;7.35;5.65;;;23.20;44.30;;;;;;8331289;28;20038;-46
2021/06/09 16:38:26;;;;;;;6.97;5.33;;;23.20;44.30;;;;;;8382795;28;20037;-49
2021/06/09 16:42:26;;;;;;;8.00;5.45;;;23.20;44.30;;;;;;8391495;28;20542;-47
2021/06/09 16:46:27;;;;;;;6.78;5.18;;;23.20;44.30;;;;;;8392253;28;20059;-48
2021/06/09 16:50:28;;;;;;;7.40;5.25;;;23.20;44.30;;;;;;8394618;28;20066;-51
2021/06/09 16:54:33;;;;;;;7.65;5.43;;;23.20;44.40;;;;;;8391932;28;20082;-48
2021/06/09 17:02:55;;;;;;;;;;;23.20;44.40;;;;;;8358077;28;20547;-50
2021/06/09 17:06:58;;;;;;;7.10;5.47;;;23.20;44.50;;;;;;8358453;28;19920;-46
2021/06/09 17:10:58;;;;;;;7.15;5.45;;;23.20;44.60;;;;;;8386141;28;20029;-49
2021/06/09 17:14:59;;;;;;;7.38;5.43;;;23.20;44.40;;;;;;8358536;28;20053;-47
2021/06/09 17:19:00;;;;;;;7.47;5.35;;;23.20;44.40;;;;;;8358437;28;20044;-48
2021/06/09 17:23:00;;;;;;;8.48;5.43;;;23.20;44.50;;;;;;8357591;28;20123;-47
2021/06/09 17:27:01;;;;;;;6.75;5.30;;;23.20;44.40;;;;;;8384225;28;20037;-49
2021/06/09 17:31:02;;;;;;;7.15;5.50;;;23.20;44.50;;;;;;8358655;28;20037;-49
2021/06/09 17:35:03;;;;;;;7.32;5.13;;;23.20;44.50;;;;;;8382840;28;20036;-50
2021/06/09 17:39:05;;;;;;;5.90;4.72;;;23.20;44.50;;;;;;8391065;28;20032;-46
2021/06/09 17:43:07;;;;;;;7.10;5.13;;;23.20;44.50;;;;;;8390664;28;20029;-47
2021/06/09 17:47:09;;;;;;;6.93;5.00;;;23.20;44.50;;;;;;8390949;28;20044;-46
2021/06/09 17:51:11;;;;;;;6.35;4.85;;;23.20;44.50;;;;;;8357771;28;20111;-46
2021/06/09 17:55:13;;;;;;;6.22;4.72;;;23.10;44.50;;;;;;8361964;28;20443;-47
2021/06/09 17:59:16;;;;;;;6.60;4.97;;;23.10;44.50;;;;;;8362512;28;20091;-50
2021/06/09 18:03:18;;;;;;;8.32;5.65;;;23.10;44.60;;;;;;8380585;28;20040;-49
2021/06/09 18:07:20;;;;;;;6.30;4.57;;;23.10;44.50;;;;;;8397442;28;20044;-47
2021/06/09 18:11:23;;;;;;;6.40;5.07;;;23.20;44.60;;;;;;8395241;28;20044;-47
2021/06/09 18:15:24;;;;;;;6.35;5.20;;;23.20;44.50;;;;;;8396425;28;20078;-48
2021/06/09 18:19:25;;;;;;;8.00;4.68;;;23.10;44.60;;;;;;8396773;28;20469;-48
2021/06/09 18:23:25;;;;;;;6.97;4.90;;;23.10;44.60;;;;;;8399802;28;20400;-49
2021/06/09 18:27:26;;;;;;;6.30;4.75;;;23.10;44.60;;;;;;8396891;28;20439;-47
2021/06/09 18:31:28;;;;;;;6.10;4.82;;;23.10;44.60;;;;;;8397005;28;20044;-47
2021/06/09 18:35:29;;;;;;;7.28;5.63;;;23.10;44.60;;;;;;8394471;28;20473;-48
2021/06/09 18:39:30;;;;;;;9.82;5.60;;;23.10;44.60;;;;;;8400570;28;20029;-48
2021/06/09 18:43:32;;;;;;;6.47;4.93;;;23.10;44.60;;;;;;8396078;28;20447;-47
2021/06/09 18:47:33;;;;;;;5.82;4.85;;;23.10;44.60;;;;;;8393892;28;20097;-47
2021/06/09 18:51:33;;;;;;;5.68;4.75;;;23.10;44.70;;;;;;8381763;28;20498;-48
2021/06/09 18:55:35;;;;;;;6.00;4.53;;;23.10;44.70;;;;;;8362975;28;20087;-48
2021/06/09 18:59:37;;;;;;;7.80;5.03;;;23.10;44.60;;;;;;8389447;28;20264;-48
2021/06/09 19:03:38;;;;;;;7.20;4.90;;;23.10;44.70;;;;;;8377481;28;20068;-48
2021/06/09 19:07:42;;;;;;;5.57;4.75;;;23.10;44.70;;;;;;8394116;28;20052;-50
2021/06/09 19:11:43;;;;;;;6.25;4.60;;;23.10;44.70;;;;;;8393232;28;20031;-46
2021/06/09 19:15:44;;;;;;;6.30;4.50;;;23.10;44.80;;;;;;8383910;28;20482;-47
2021/06/09 19:19:45;;;;;;;6.13;4.88;;;23.10;44.80;;;;;;8362095;28;20094;-48
2021/06/09 19:23:47;;;;;;;6.15;4.90;;;23.10;44.80;;;;;;8392731;28;20083;-49
2021/06/09 19:27:48;;;;;;;6.03;4.28;;;23.00;44.80;;;;;;8395474;28;20029;-47
2021/06/09 19:31:49;;;;;;;6.28;4.28;;;23.10;44.80;;;;;;8399579;28;20120;-47
2021/06/09 19:35:49;;;;;;;5.90;4.40;;;23.10;44.70;;;;;;8360049;28;20040;-47
2021/06/09 19:39:50;;;;;;;6.57;4.47;;;23.10;44.80;;;;;;8378248;28;20035;-47
2021/06/09 19:43:52;;;;;;;6.32;4.32;;;23.00;44.70;;;;;;8392934;28;20041;-47
2021/06/09 19:47:52;;;;;;;5.40;4.30;;;23.00;44.60;;;;;;8394151;28;20033;-47
2021/06/09 19:51:53;;;;;;;5.43;4.67;;;23.00;44.70;;;;;;8381634;28;20058;-47
2021/06/09 19:55:54;;;;;;;5.75;4.63;;;23.00;44.80;;;;;;8384851;28;20298;-47
2021/06/09 19:59:54;;;;;;;5.73;4.63;;;23.00;44.80;;;;;;8394042;28;20028;-48
2021/06/09 20:03:55;;;;;;;5.10;4.20;;;23.00;44.70;;;;;;8393742;28;20124;-47
2021/06/09 20:07:57;;;;;;;5.82;4.45;;;22.90;44.60;;;;;;8396339;28;20097;-47
2021/06/09 20:11:57;;;;;;;5.47;4.40;;;23.00;44.70;;;;;;8394261;28;20082;-47
2021/06/09 20:15:59;;;;;;;5.80;4.63;;;22.90;44.70;;;;;;8393435;28;20041;-49
2021/06/09 20:19:59;;;;;;;4.72;3.83;;;22.90;44.70;;;;;;8365370;28;20107;-47
2021/06/09 20:24:04;;;;;;;5.87;4.73;;;22.90;44.70;;;;;;8359851;28;20103;-47
2021/06/09 20:28:05;;;;;;;5.50;4.60;;;22.90;44.60;;;;;;8383153;28;20291;-47
2021/06/09 20:32:08;;;;;;;5.67;4.47;;;22.90;44.70;;;;;;8391132;28;20485;-47
2021/06/09 20:36:09;;;;;;;5.40;4.13;;;22.90;44.70;;;;;;8382255;28;20037;-46
2021/06/09 20:40:10;;;;;;;6.00;4.50;;;22.90;44.70;;;;;;8379032;28;20056;-47
2021/06/09 20:44:10;;;;;;;;;;;22.90;44.70;;;;;;8370911;28;20056;-47
2021/06/09 20:48:12;;;;;;;5.53;4.30;;;22.90;44.70;;;;;;8392335;28;19927;-48
2021/06/09 20:52:12;;;;;;;4.93;4.18;;;22.90;44.70;;;;;;8392606;28;20029;-48
2021/06/09 20:56:13;;;;;;;4.73;3.53;;;22.90;44.70;;;;;;8387196;28;20387;-47
2021/06/09 21:00:14;;;;;;;4.37;3.80;;;22.80;44.70;;;;;;8375504;28;20263;-48
2021/06/09 21:04:15;;;;;;;7.78;4.18;;;22.90;44.70;;;;;;8391786;28;20271;-48
2021/06/09 21:08:16;;;;;;;4.43;3.90;;;22.90;44.70;;;;;;8390121;28;20124;-48
2021/06/09 21:12:17;;;;;;;5.80;4.00;;;22.80;44.60;;;;;;8392114;28;20266;-47
2021/06/09 21:16:17;;;;;;;4.15;3.60;;;22.80;44.70;;;;;;8391847;28;20028;-47